Time;durP1;ratioP1;P1;durP2;ratioP2;P2;SDS_P1;SDS_P2;PMS_P1;PMS_P2;Temp;Humidity;BMP_temperature;BMP_pressure;BME280_temperature;BME280_humidity;BME280_pressure;Samples;Min_cycle;Max_cycle;Signal;HPM_P1;HPM_P2
2022/04/12 00:01:06;;;;;;;6.47;2.45;;;7.40;61.00;;;;;;2373269;56;21110;-74
2022/04/12 00:03:34;;;;;;;7.37;2.87;;;7.40;61.00;;;;;;2373830;56;21098;-74
2022/04/12 00:06:01;;;;;;;5.57;2.35;;;7.40;61.20;;;;;;2373739;56;21059;-75
2022/04/12 00:08:29;;;;;;;9.75;3.40;;;7.40;61.20;;;;;;2373799;56;21079;-74
2022/04/12 00:10:56;;;;;;;6.37;2.70;;;7.40;61.20;;;;;;2374124;56;21102;-74
2022/04/12 00:13:23;;;;;;;5.80;2.53;;;7.50;61.00;;;;;;2373950;56;21094;-74
2022/04/12 00:15:51;;;;;;;4.05;2.30;;;7.50;60.90;;;;;;2373949;56;21039;-74
2022/04/12 00:21:03;;;;;;;6.05;2.37;;;7.40;60.60;;;;;;2374077;56;20999;-75
2022/04/12 00:23:31;;;;;;;5.50;2.90;;;7.40;60.70;;;;;;2373537;56;21086;-74
2022/04/12 00:25:58;;;;;;;6.35;2.65;;;7.40;60.90;;;;;;2373663;56;21050;-75
2022/04/12 00:28:26;;;;;;;5.60;2.50;;;7.30;60.90;;;;;;2374005;56;21040;-74
2022/04/12 00:30:54;;;;;;;4.65;2.35;;;7.30;61.00;;;;;;2374192;56;21035;-74
2022/04/12 00:33:21;;;;;;;5.07;2.45;;;7.30;61.30;;;;;;2372000;56;21051;-75
2022/04/12 00:35:48;;;;;;;9.55;2.55;;;7.30;61.40;;;;;;2373207;56;21194;-74
2022/04/12 00:38:18;;;;;;;8.02;2.70;;;7.20;61.40;;;;;;2373732;56;21644;-74
2022/04/12 00:40:46;;;;;;;6.82;3.03;;;7.30;61.50;;;;;;2374172;56;21129;-75
2022/04/12 00:43:15;;;;;;;6.82;2.65;;;7.20;61.60;;;;;;2373728;56;21158;-74
2022/04/12 00:45:42;;;;;;;4.57;2.62;;;7.20;61.80;;;;;;2373848;56;21055;-75
2022/04/12 00:48:10;;;;;;;4.57;2.70;;;7.20;61.80;;;;;;2373927;56;21043;-74
2022/04/12 00:50:38;;;;;;;4.10;2.70;;;7.20;62.20;;;;;;2372169;56;21094;-74
2022/04/12 00:53:08;;;;;;;5.87;2.53;;;7.10;61.80;;;;;;2627048;52;21046;-74
2022/04/12 00:55:35;;;;;;;4.50;3.08;;;7.10;61.80;;;;;;2373308;56;21047;-74
2022/04/12 00:58:06;;;;;;;7.10;3.17;;;7.10;62.10;;;;;;2373844;56;21051;-74
2022/04/12 01:00:34;;;;;;;6.47;2.78;;;7.00;63.00;;;;;;2627281;52;21062;-75
2022/04/12 01:03:02;;;;;;;5.70;2.42;;;7.00;62.50;;;;;;2374070;56;21054;-75
2022/04/12 01:05:29;;;;;;;4.32;2.75;;;7.00;63.20;;;;;;2373391;56;21647;-75
2022/04/12 01:07:56;;;;;;;6.32;2.60;;;7.00;62.40;;;;;;2371878;56;21546;-74
2022/04/12 01:10:25;;;;;;;7.87;3.15;;;7.00;62.40;;;;;;2373438;56;21079;-74
2022/04/12 01:12:53;;;;;;;6.15;2.85;;;7.00;62.60;;;;;;2373927;56;21126;-74
2022/04/12 01:15:23;;;;;;;7.20;2.67;;;7.00;62.60;;;;;;2373304;56;21083;-73
2022/04/12 01:17:51;;;;;;;5.65;2.85;;;7.00;62.60;;;;;;2373904;56;21096;-75
2022/04/12 01:20:23;;;;;;;5.68;2.62;;;7.00;62.70;;;;;;2373804;56;21063;-74
2022/04/12 01:22:55;;;;;;;9.03;2.53;;;6.90;62.80;;;;;;2373486;56;21110;-74
2022/04/12 01:25:23;;;;;;;8.77;3.03;;;6.90;62.90;;;;;;2372931;56;21046;-74
2022/04/12 01:27:51;;;;;;;7.28;2.95;;;6.90;62.80;;;;;;2374049;56;21189;-74
2022/04/12 01:30:18;;;;;;;7.03;2.78;;;6.90;63.00;;;;;;2373879;56;21051;-76
2022/04/12 01:32:45;;;;;;;3.97;2.47;;;6.90;63.10;;;;;;2373781;56;21098;-74
2022/04/12 01:35:13;;;;;;;6.78;2.92;;;6.90;63.20;;;;;;2373454;56;21114;-74
2022/04/12 01:37:40;;;;;;;5.22;2.37;;;6.90;63.30;;;;;;2373829;56;21039;-74
2022/04/12 01:40:09;;;;;;;4.53;3.25;;;6.90;63.40;;;;;;2373680;56;21074;-74
2022/04/12 01:42:37;;;;;;;7.18;2.83;;;6.90;63.40;;;;;;2373924;56;21158;-74
2022/04/12 01:45:06;;;;;;;7.00;3.35;;;6.80;63.40;;;;;;2373552;56;21059;-75
2022/04/12 01:47:34;;;;;;;6.12;2.97;;;6.80;63.60;;;;;;2373676;56;21065;-76
2022/04/12 01:50:01;;;;;;;7.30;3.33;;;6.80;63.80;;;;;;2373803;56;21047;-74
2022/04/12 01:52:28;;;;;;;6.60;2.62;;;6.80;64.00;;;;;;2373828;56;21122;-75
2022/04/12 01:54:55;;;;;;;5.37;2.58;;;6.80;64.00;;;;;;2373591;56;21117;-74
2022/04/12 01:57:23;;;;;;;6.95;2.95;;;6.80;64.00;;;;;;2372848;56;21101;-74
2022/04/12 01:59:50;;;;;;;6.60;3.10;;;6.80;64.10;;;;;;2373460;56;21130;-74
2022/04/12 02:02:17;;;;;;;6.35;2.87;;;6.80;64.10;;;;;;2373053;56;21066;-74
2022/04/12 02:04:44;;;;;;;7.30;2.95;;;6.80;64.10;;;;;;2626938;52;21055;-76
2022/04/12 02:07:12;;;;;;;6.50;3.08;;;6.80;64.00;;;;;;2373355;56;21031;-74
2022/04/12 02:09:39;;;;;;;5.22;2.87;;;6.80;64.20;;;;;;2374238;56;21119;-74
2022/04/12 02:12:08;;;;;;;9.95;3.17;;;6.80;64.20;;;;;;2626552;52;21039;-74
2022/04/12 02:14:35;;;;;;;6.32;3.70;;;6.80;64.20;;;;;;2373824;56;21055;-74
2022/04/12 02:17:03;;;;;;;5.07;2.95;;;6.80;64.20;;;;;;2373402;56;21582;-74
2022/04/12 02:19:30;;;;;;;6.25;3.30;;;6.80;64.20;;;;;;2627372;52;21126;-74
2022/04/12 02:24:34;;;;;;;4.68;3.53;;;6.90;64.20;;;;;;2354897;57;22070;-75
2022/04/12 02:27:01;;;;;;;9.45;3.30;;;6.80;64.10;;;;;;2370154;56;21130;-75
2022/04/12 02:29:28;;;;;;;11.43;3.50;;;6.80;64.20;;;;;;2375490;56;21059;-75
2022/04/12 02:31:55;;;;;;;6.55;2.80;;;6.80;64.30;;;;;;2375302;56;21579;-75
2022/04/12 02:34:23;;;;;;;6.82;3.53;;;6.80;64.40;;;;;;2375063;56;21597;-76
2022/04/12 02:36:50;;;;;;;7.90;2.80;;;6.80;64.60;;;;;;2628061;52;21019;-76
2022/04/12 02:39:17;;;;;;;4.47;2.67;;;6.80;64.50;;;;;;2372574;56;21118;-76
2022/04/12 02:41:44;;;;;;;9.02;3.25;;;6.80;64.40;;;;;;2373762;56;21115;-76
2022/04/12 02:44:12;;;;;;;9.75;2.85;;;6.80;64.30;;;;;;2374975;56;21035;-76
2022/04/12 02:46:39;;;;;;;6.68;3.08;;;6.80;64.40;;;;;;2374191;56;21181;-76
2022/04/12 02:49:06;;;;;;;4.68;2.62;;;6.80;64.40;;;;;;2375355;56;21032;-77
2022/04/12 02:51:34;;;;;;;9.23;3.25;;;6.80;64.70;;;;;;2374337;56;21133;-76
2022/04/12 02:54:02;;;;;;;6.50;2.95;;;6.80;64.60;;;;;;2373884;56;21596;-76
2022/04/12 02:56:29;;;;;;;6.68;3.55;;;6.80;64.50;;;;;;2373963;56;21039;-75
2022/04/12 02:58:56;;;;;;;6.20;3.10;;;6.80;64.70;;;;;;2375224;56;21047;-75
2022/04/12 03:04:00;;;;;;;6.65;2.83;;;6.80;65.50;;;;;;2355530;57;22062;-74
2022/04/12 03:06:27;;;;;;;6.57;3.45;;;6.80;64.70;;;;;;2363226;56;21051;-76
2022/04/12 03:08:54;;;;;;;4.80;3.20;;;6.80;64.60;;;;;;2374573;56;21055;-76
2022/04/12 03:11:21;;;;;;;5.65;2.45;;;6.80;64.50;;;;;;2628470;52;21054;-75
2022/04/12 03:13:49;;;;;;;5.10;3.12;;;6.80;64.50;;;;;;2374430;56;21673;-73
2022/04/12 03:16:16;;;;;;;8.77;4.10;;;6.90;64.50;;;;;;2374439;56;21612;-76
2022/04/12 03:18:43;;;;;;;8.07;3.28;;;6.90;64.30;;;;;;2374217;56;21055;-75
2022/04/12 03:21:11;;;;;;;8.32;3.35;;;6.90;64.20;;;;;;2374710;56;21070;-76
2022/04/12 03:23:38;;;;;;;4.62;2.80;;;6.90;64.20;;;;;;2374922;56;21158;-76
2022/04/12 03:26:06;;;;;;;15.05;3.10;;;6.90;64.30;;;;;;2373910;56;21056;-76
2022/04/12 03:28:33;;;;;;;6.70;4.03;;;6.90;64.30;;;;;;2374844;56;21051;-74
2022/04/12 03:31:01;;;;;;;4.68;2.90;;;6.90;64.30;;;;;;2374147;56;21585;-76
2022/04/12 03:33:28;;;;;;;5.35;2.87;;;7.00;64.30;;;;;;2627333;52;21130;-75
2022/04/12 03:35:55;;;;;;;5.57;3.22;;;7.00;64.40;;;;;;2374426;56;21573;-75
2022/04/12 03:38:23;;;;;;;6.43;3.33;;;7.10;64.30;;;;;;2628794;52;21101;-74
2022/04/12 03:40:50;;;;;;;6.37;2.80;;;7.10;63.60;;;;;;2375132;56;21123;-75
2022/04/12 03:43:17;;;;;;;5.82;2.78;;;7.10;64.00;;;;;;2375037;56;21039;-74
2022/04/12 03:45:44;;;;;;;5.85;2.92;;;7.10;64.00;;;;;;2374571;56;21043;-75
2022/04/12 03:48:11;;;;;;;6.55;2.97;;;7.10;63.80;;;;;;2375000;56;21114;-75
2022/04/12 03:50:39;;;;;;;6.68;2.83;;;7.10;63.70;;;;;;2628524;52;21119;-75
2022/04/12 03:53:06;;;;;;;4.87;2.62;;;7.10;63.60;;;;;;2375256;56;21035;-75
2022/04/12 03:55:38;;;;;;;7.80;3.10;;;7.10;63.60;;;;;;2375033;56;21118;-75
2022/04/12 03:58:07;;;;;;;5.32;2.72;;;7.10;63.60;;;;;;2373216;56;21036;-75
2022/04/12 04:00:35;;;;;;;5.45;2.87;;;7.10;63.60;;;;;;2375238;56;21125;-76
2022/04/12 04:03:03;;;;;;;6.47;3.53;;;7.10;63.50;;;;;;2628739;52;21178;-75
2022/04/12 04:05:30;;;;;;;6.47;2.92;;;7.10;63.50;;;;;;2374912;56;21102;-74
2022/04/12 04:07:57;;;;;;;9.50;3.67;;;7.20;63.60;;;;;;2374648;56;21035;-76
2022/04/12 04:10:25;;;;;;;7.00;3.90;;;7.10;63.60;;;;;;2375488;56;21046;-76
2022/04/12 04:12:53;;;;;;;6.65;4.50;;;7.10;63.60;;;;;;2375139;56;21039;-76
2022/04/12 04:15:20;;;;;;;5.75;3.55;;;7.10;64.50;;;;;;2371976;56;21378;-75
2022/04/12 04:17:48;;;;;;;6.50;3.65;;;7.10;63.70;;;;;;2374010;56;21039;-75
2022/04/12 04:20:17;;;;;;;5.85;3.40;;;7.10;63.70;;;;;;2374330;56;21047;-75
2022/04/12 04:22:45;;;;;;;7.35;3.90;;;7.20;63.60;;;;;;2373699;56;21051;-74
2022/04/12 04:25:13;;;;;;;3.80;3.08;;;7.20;63.40;;;;;;2374101;56;21043;-75
2022/04/12 04:27:41;;;;;;;6.50;3.50;;;7.20;63.40;;;;;;2374084;56;21043;-74
2022/04/12 04:32:48;;;;;;;5.40;3.25;;;7.20;63.50;;;;;;2355109;57;22101;-72
2022/04/12 04:35:15;;;;;;;6.47;3.78;;;7.20;63.30;;;;;;2350140;56;21449;-76
2022/04/12 04:37:44;;;;;;;8.20;3.45;;;7.20;63.40;;;;;;2374734;56;21050;-76
2022/04/12 04:40:13;;;;;;;5.65;3.95;;;7.20;63.30;;;;;;2374745;56;21051;-75
2022/04/12 04:42:42;;;;;;;5.70;3.12;;;7.20;63.20;;;;;;2374848;56;21353;-74
2022/04/12 04:45:10;;;;;;;7.87;3.55;;;7.20;63.20;;;;;;2375184;56;21078;-75
2022/04/12 04:47:49;;;;;;;9.20;3.65;;;7.30;63.40;;;;;;2374649;56;21098;-76
2022/04/12 04:50:16;;;;;;;9.05;3.87;;;7.20;63.40;;;;;;2374961;56;21019;-75
2022/04/12 04:52:43;;;;;;;7.35;3.55;;;7.30;63.30;;;;;;2375254;56;21134;-75
2022/04/12 04:55:11;;;;;;;8.52;3.60;;;7.30;63.50;;;;;;2375044;56;21115;-74
2022/04/12 04:57:40;;;;;;;6.72;3.22;;;7.30;63.50;;;;;;2374195;56;21127;-74
2022/04/12 05:00:15;;;;;;;11.70;3.50;;;7.20;63.70;;;;;;2375226;56;21427;-75
2022/04/12 05:02:43;;;;;;;5.25;3.05;;;7.20;63.60;;;;;;2374954;56;21055;-74
2022/04/12 05:05:11;;;;;;;11.23;3.78;;;7.30;63.80;;;;;;2374955;56;21059;-75
2022/04/12 05:07:39;;;;;;;9.73;4.22;;;7.30;63.80;;;;;;2374748;56;21035;-73
2022/04/12 05:10:12;;;;;;;5.18;3.03;;;7.30;63.80;;;;;;2375282;56;21141;-74
2022/04/12 05:12:39;;;;;;;4.80;3.35;;;7.40;63.80;;;;;;2375151;56;21081;-73
2022/04/12 05:15:08;;;;;;;5.43;3.55;;;7.40;63.60;;;;;;2374506;56;21038;-76
2022/04/12 05:17:35;;;;;;;7.22;3.87;;;7.40;63.60;;;;;;2375001;56;21101;-73
2022/04/12 05:20:06;;;;;;;6.03;4.03;;;7.50;63.60;;;;;;2628643;52;21110;-75
2022/04/12 05:22:33;;;;;;;6.68;3.70;;;7.50;63.60;;;;;;2374904;56;21043;-75
2022/04/12 05:25:00;;;;;;;4.97;3.67;;;7.60;63.70;;;;;;2374609;56;21039;-74
2022/04/12 05:27:32;;;;;;;7.50;3.58;;;7.70;63.50;;;;;;2374331;56;21059;-75
2022/04/12 05:30:00;;;;;;;8.32;3.65;;;7.70;63.40;;;;;;2628192;52;21052;-75
2022/04/12 05:32:27;;;;;;;8.18;3.80;;;7.80;63.30;;;;;;2374938;56;21146;-74
2022/04/12 05:34:54;;;;;;;7.90;3.87;;;7.80;63.10;;;;;;2374960;56;21612;-74
2022/04/12 05:37:22;;;;;;;10.20;4.12;;;7.80;62.90;;;;;;2374700;56;21135;-75
2022/04/12 05:39:49;;;;;;;7.43;3.70;;;7.90;62.90;;;;;;2375024;56;21059;-74
2022/04/12 05:42:16;;;;;;;12.70;4.00;;;8.00;62.70;;;;;;2374886;56;21051;-74
2022/04/12 05:44:44;;;;;;;7.55;4.03;;;8.00;63.50;;;;;;2373860;56;21114;-74
2022/04/12 05:47:13;;;;;;;13.77;4.55;;;8.10;62.50;;;;;;2371138;56;21066;-74
2022/04/12 05:49:40;;;;;;;11.82;4.10;;;8.10;62.10;;;;;;2374019;56;21070;-74
2022/04/12 05:52:08;;;;;;;8.60;3.78;;;8.20;61.90;;;;;;2373802;56;21122;-75
2022/04/12 05:54:36;;;;;;;13.77;4.15;;;8.10;61.50;;;;;;2627208;52;21102;-73
2022/04/12 05:57:04;;;;;;;6.90;4.25;;;8.20;61.60;;;;;;2374011;56;21537;-74
2022/04/12 05:59:31;;;;;;;4.68;3.53;;;8.10;61.70;;;;;;2373895;56;21043;-75
2022/04/12 06:04:34;;;;;;;8.23;4.55;;;8.20;61.80;;;;;;2280547;58;27928;-73
2022/04/12 06:07:01;;;;;;;6.18;3.97;;;8.20;62.30;;;;;;2559201;53;21052;-74
2022/04/12 06:09:28;;;;;;;9.02;3.67;;;8.30;62.00;;;;;;2318115;58;21643;-75
2022/04/12 06:11:56;;;;;;;5.55;3.72;;;8.40;61.80;;;;;;2318302;58;21068;-75
2022/04/12 06:14:23;;;;;;;6.90;4.00;;;8.50;61.70;;;;;;2559432;54;21033;-74
2022/04/12 06:16:50;;;;;;;5.40;3.62;;;8.60;61.40;;;;;;2317549;58;21037;-74
2022/04/12 06:19:17;;;;;;;9.82;4.57;;;8.60;61.10;;;;;;2556289;54;21052;-74
2022/04/12 06:21:45;;;;;;;7.53;3.78;;;8.70;60.80;;;;;;2318162;58;21062;-74
2022/04/12 06:24:12;;;;;;;4.97;3.42;;;8.80;60.90;;;;;;2558657;54;21048;-73
2022/04/12 06:26:40;;;;;;;7.28;4.32;;;8.80;61.00;;;;;;2317916;58;21626;-74
2022/04/12 06:29:07;;;;;;;6.03;3.80;;;8.90;61.00;;;;;;2317816;58;21182;-73
2022/04/12 06:31:35;;;;;;;5.85;3.80;;;8.90;60.70;;;;;;2317858;58;21587;-73
2022/04/12 06:34:02;;;;;;;11.48;3.22;;;8.90;60.60;;;;;;2317596;58;21199;-74
2022/04/12 06:36:29;;;;;;;4.18;3.55;;;9.00;60.30;;;;;;2315606;58;21295;-75
2022/04/12 06:38:57;;;;;;;5.65;3.55;;;9.10;60.30;;;;;;2318396;58;21032;-73
2022/04/12 06:41:25;;;;;;;6.43;3.47;;;9.10;60.20;;;;;;2318380;58;21032;-73
2022/04/12 06:43:52;;;;;;;9.32;3.42;;;9.20;60.40;;;;;;2318209;58;21141;-74
2022/04/12 06:46:19;;;;;;;6.03;3.30;;;9.20;60.40;;;;;;2317787;58;21060;-73
2022/04/12 06:48:46;;;;;;;4.87;3.05;;;9.30;60.50;;;;;;2318125;58;21661;-74
2022/04/12 06:51:14;;;;;;;6.82;3.78;;;9.30;60.10;;;;;;2317981;58;21046;-73
2022/04/12 06:53:41;;;;;;;8.32;3.70;;;9.40;59.90;;;;;;2318389;58;21120;-74
2022/04/12 06:56:08;;;;;;;5.97;3.60;;;9.50;59.80;;;;;;2317676;58;22208;-73
2022/04/12 06:58:35;;;;;;;11.68;3.62;;;9.50;59.30;;;;;;2318447;58;21049;-74
2022/04/12 07:01:02;;;;;;;5.50;3.97;;;9.60;59.10;;;;;;2318016;58;21059;-75
2022/04/12 07:03:30;;;;;;;5.93;3.35;;;9.60;58.80;;;;;;2318249;58;21044;-73
2022/04/12 07:05:57;;;;;;;4.55;3.12;;;9.70;58.60;;;;;;2317362;58;21140;-74
2022/04/12 07:08:24;;;;;;;5.60;3.50;;;9.80;58.70;;;;;;2318313;58;21588;-73
2022/04/12 07:10:52;;;;;;;6.93;3.80;;;9.80;58.10;;;;;;2318360;58;21047;-73
2022/04/12 07:13:19;;;;;;;7.20;3.40;;;9.90;58.10;;;;;;2318573;58;21085;-73
2022/04/12 07:15:46;;;;;;;8.02;3.70;;;9.90;57.90;;;;;;2316981;58;21575;-74
2022/04/12 07:18:14;;;;;;;10.43;4.03;;;9.90;57.70;;;;;;2317199;58;21127;-74
2022/04/12 07:20:41;;;;;;;6.97;3.60;;;10.00;57.40;;;;;;2317410;58;21040;-73
2022/04/12 07:23:08;;;;;;;5.53;3.50;;;10.00;57.60;;;;;;2317117;58;21057;-74
2022/04/12 07:25:35;;;;;;;7.28;3.95;;;10.00;57.60;;;;;;2317054;58;21183;-73
2022/04/12 07:28:03;;;;;;;5.93;3.47;;;10.10;57.50;;;;;;2317381;58;21057;-74
2022/04/12 07:30:30;;;;;;;6.78;3.33;;;10.20;57.40;;;;;;2317718;58;21092;-73
2022/04/12 07:32:57;;;;;;;5.00;3.30;;;10.20;57.70;;;;;;2317360;58;21053;-73
2022/04/12 07:35:27;;;;;;;4.30;3.10;;;10.30;56.90;;;;;;2315983;58;21070;-74
2022/04/12 07:37:54;;;;;;;5.25;3.50;;;10.30;57.20;;;;;;2317069;58;21111;-74
2022/04/12 07:40:22;;;;;;;5.47;3.37;;;10.40;56.30;;;;;;2316797;58;21124;-74
2022/04/12 07:42:49;;;;;;;7.95;3.58;;;10.40;56.30;;;;;;2317489;58;21068;-73
2022/04/12 07:45:16;;;;;;;5.28;3.50;;;10.50;56.40;;;;;;2317318;58;21116;-73
2022/04/12 07:47:44;;;;;;;6.35;3.50;;;10.50;56.20;;;;;;2317199;58;21049;-74
2022/04/12 07:50:11;;;;;;;5.95;3.42;;;10.60;56.40;;;;;;2317528;58;21047;-73
2022/04/12 07:52:38;;;;;;;4.85;3.15;;;10.60;55.80;;;;;;2317590;58;21618;-74
2022/04/12 07:55:07;;;;;;;8.85;3.75;;;10.70;55.40;;;;;;2314996;58;21531;-73
2022/04/12 07:57:34;;;;;;;6.32;3.45;;;10.70;55.30;;;;;;2316787;58;21678;-75
2022/04/12 08:00:01;;;;;;;4.30;3.55;;;10.80;55.40;;;;;;2316861;58;21045;-74
2022/04/12 08:02:28;;;;;;;9.23;3.33;;;10.80;55.30;;;;;;2317614;58;21060;-73
2022/04/12 08:04:56;;;;;;;6.87;3.62;;;10.90;55.10;;;;;;2317087;58;21710;-74
2022/04/12 08:07:23;;;;;;;6.87;3.67;;;10.90;55.00;;;;;;2439904;53;21695;-74
2022/04/12 08:09:50;;;;;;;3.70;3.15;;;10.90;54.70;;;;;;2241706;60;21103;-74
2022/04/12 08:12:17;;;;;;;6.45;3.28;;;11.00;54.50;;;;;;2240953;60;21159;-74
2022/04/12 08:14:45;;;;;;;8.48;3.37;;;11.10;55.30;;;;;;2241226;60;21067;-73
2022/04/12 08:17:12;;;;;;;7.25;3.70;;;11.20;54.50;;;;;;2263949;59;21177;-74
2022/04/12 08:19:39;;;;;;;5.57;3.75;;;11.20;54.00;;;;;;2266618;59;21145;-73
2022/04/12 08:22:08;;;;;;;5.55;3.10;;;11.30;53.50;;;;;;2266890;59;21137;-73
2022/04/12 08:24:36;;;;;;;6.00;3.65;;;11.30;53.50;;;;;;2266672;59;21069;-73
2022/04/12 08:27:04;;;;;;;10.23;3.85;;;11.40;53.70;;;;;;2266348;59;21392;-73
2022/04/12 08:29:31;;;;;;;6.25;3.60;;;11.40;53.30;;;;;;2496186;55;21060;-73
2022/04/12 08:31:59;;;;;;;4.95;3.28;;;11.40;53.90;;;;;;2266262;59;21125;-74
2022/04/12 08:34:26;;;;;;;7.25;3.58;;;11.50;53.90;;;;;;2266585;59;21061;-72
2022/04/12 08:36:53;;;;;;;5.32;3.40;;;11.60;53.30;;;;;;2265966;59;21575;-74
2022/04/12 08:39:20;;;;;;;6.07;3.83;;;11.70;52.80;;;;;;2266537;59;21510;-73
2022/04/12 08:41:48;;;;;;;5.53;3.92;;;11.70;51.60;;;;;;2266864;59;21061;-73
2022/04/12 08:44:18;;;;;;;6.87;3.22;;;11.70;51.70;;;;;;2266573;59;21149;-73
2022/04/12 08:46:46;;;;;;;4.65;3.42;;;11.70;51.70;;;;;;2266219;59;21133;-73
2022/04/12 08:49:14;;;;;;;7.20;3.95;;;11.70;51.30;;;;;;2266286;59;21137;-73
2022/04/12 08:51:41;;;;;;;4.32;3.60;;;11.80;51.90;;;;;;2266906;59;21073;-73
2022/04/12 08:54:09;;;;;;;5.93;3.60;;;11.80;52.50;;;;;;2266677;59;21208;-74
2022/04/12 08:56:36;;;;;;;5.05;3.55;;;11.80;52.00;;;;;;2266388;59;21077;-74
2022/04/12 08:59:05;;;;;;;4.68;3.33;;;11.90;52.20;;;;;;2266356;59;21053;-73
2022/04/12 09:01:32;;;;;;;5.55;3.78;;;11.90;51.60;;;;;;2267070;59;21449;-73
2022/04/12 09:03:59;;;;;;;5.32;3.10;;;11.90;50.90;;;;;;2266856;59;21144;-73
2022/04/12 09:06:27;;;;;;;5.28;3.83;;;11.90;50.50;;;;;;2266329;59;21851;-74
2022/04/12 09:08:54;;;;;;;7.78;3.45;;;12.00;50.90;;;;;;2266725;59;21540;-73
2022/04/12 09:11:22;;;;;;;6.75;3.83;;;12.00;51.50;;;;;;2265779;59;21073;-74
2022/04/12 09:14:00;;;;;;;7.22;3.47;;;12.00;51.00;;;;;;2496184;55;21069;-73
2022/04/12 09:16:28;;;;;;;6.90;4.28;;;12.10;51.10;;;;;;2265875;59;21137;-73
2022/04/12 09:18:56;;;;;;;6.07;3.70;;;12.10;50.70;;;;;;2266957;59;21073;-73
2022/04/12 09:21:27;;;;;;;8.20;4.22;;;12.20;51.20;;;;;;2266773;59;21089;-74
2022/04/12 09:23:55;;;;;;;7.35;3.85;;;12.20;51.40;;;;;;2266935;59;21077;-74
2022/04/12 09:26:26;;;;;;;5.70;4.18;;;12.30;51.70;;;;;;2266274;59;21070;-74
2022/04/12 09:28:55;;;;;;;7.15;4.22;;;12.30;51.70;;;;;;2265441;59;21105;-73
2022/04/12 09:31:24;;;;;;;8.90;4.25;;;12.40;51.40;;;;;;2266387;59;21316;-75
2022/04/12 09:33:53;;;;;;;9.05;4.53;;;12.50;51.10;;;;;;2496479;55;21117;-73
2022/04/12 09:36:20;;;;;;;8.32;4.07;;;12.50;51.30;;;;;;2266464;59;21226;-74
2022/04/12 09:38:55;;;;;;;8.25;4.97;;;12.60;50.80;;;;;;2267145;59;21144;-73
2022/04/12 09:41:24;;;;;;;7.87;4.55;;;12.60;50.30;;;;;;2266275;59;21074;-75
2022/04/12 09:43:56;;;;;;;8.32;4.78;;;12.70;50.50;;;;;;2267017;59;21077;-74
2022/04/12 09:46:24;;;;;;;10.63;5.00;;;12.70;49.40;;;;;;2264306;59;21142;-74
2022/04/12 09:48:53;;;;;;;7.03;4.50;;;12.70;50.30;;;;;;2266382;59;21066;-74
2022/04/12 09:51:22;;;;;;;10.38;4.93;;;12.80;50.60;;;;;;2266451;59;21145;-73
2022/04/12 09:53:50;;;;;;;6.30;4.37;;;12.90;49.90;;;;;;2266340;59;21544;-73
2022/04/12 09:56:20;;;;;;;8.40;5.15;;;13.00;50.30;;;;;;2265913;59;21069;-74
2022/04/12 09:58:49;;;;;;;13.60;6.15;;;13.10;49.50;;;;;;2266767;59;21054;-73
2022/04/12 10:01:17;;;;;;;13.77;5.97;;;13.20;48.40;;;;;;2266750;59;21161;-73
2022/04/12 10:03:50;;;;;;;9.05;5.00;;;13.20;48.50;;;;;;2266520;59;21152;-74
2022/04/12 10:06:20;;;;;;;13.55;5.45;;;13.30;49.10;;;;;;2265334;59;21069;-73
2022/04/12 10:08:53;;;;;;;13.45;6.32;;;13.40;49.60;;;;;;2266829;59;21078;-73
2022/04/12 10:11:21;;;;;;;8.50;4.78;;;13.40;48.70;;;;;;2266928;59;21069;-74
2022/04/12 10:13:49;;;;;;;10.90;5.97;;;13.50;49.10;;;;;;2266429;59;21140;-73
2022/04/12 10:16:18;;;;;;;10.70;6.03;;;13.60;48.80;;;;;;2266268;59;21422;-75
2022/04/12 10:18:46;;;;;;;11.35;5.82;;;13.70;47.80;;;;;;2266630;59;21073;-74
2022/04/12 10:21:14;;;;;;;10.18;5.40;;;13.90;48.10;;;;;;2496120;55;21081;-74
2022/04/12 10:23:43;;;;;;;8.25;5.40;;;14.00;48.10;;;;;;2266211;59;21140;-74
2022/04/12 10:26:12;;;;;;;9.50;5.85;;;14.10;47.90;;;;;;2265973;59;21049;-73
2022/04/12 10:28:40;;;;;;;11.57;5.87;;;14.20;48.20;;;;;;2266680;59;21057;-73
2022/04/12 10:31:21;;;;;;;8.70;5.28;;;14.20;48.00;;;;;;2266355;59;21114;-74
2022/04/12 10:34:09;;;;;;;11.45;5.97;;;14.20;46.70;;;;;;2496581;55;21061;-73
2022/04/12 10:37:05;;;;;;;10.82;6.20;;;14.30;47.20;;;;;;2495946;55;21077;-74
2022/04/12 10:39:35;;;;;;;11.95;6.10;;;14.40;47.60;;;;;;2266338;59;21082;-75
2022/04/12 10:42:05;;;;;;;11.68;5.62;;;14.50;46.90;;;;;;2266710;59;21077;-74
2022/04/12 10:44:41;;;;;;;8.23;5.20;;;14.60;46.60;;;;;;2266429;59;21560;-73
2022/04/12 10:47:22;;;;;;;13.73;6.03;;;14.70;46.50;;;;;;2495857;55;21133;-73
2022/04/12 10:49:53;;;;;;;8.77;5.32;;;14.80;46.40;;;;;;2266670;59;21069;-73
2022/04/12 10:52:31;;;;;;;8.20;5.10;;;14.90;46.50;;;;;;2267176;59;21078;-73
2022/04/12 10:54:58;;;;;;;13.57;6.50;;;15.00;46.40;;;;;;2266518;59;21137;-73
2022/04/12 10:57:26;;;;;;;10.55;6.30;;;15.00;45.90;;;;;;2266419;59;21080;-73
2022/04/12 10:59:58;;;;;;;13.70;6.68;;;15.00;44.60;;;;;;2267130;59;21073;-74
2022/04/12 11:02:30;;;;;;;10.23;6.62;;;15.20;45.30;;;;;;2265343;59;21615;-75
2022/04/12 11:04:58;;;;;;;10.10;6.25;;;15.20;45.20;;;;;;2266515;59;21132;-73
2022/04/12 11:07:33;;;;;;;11.38;6.30;;;15.30;44.80;;;;;;2266193;59;21053;-73
2022/04/12 11:10:21;;;;;;;11.55;6.47;;;15.40;45.10;;;;;;2266580;59;21141;-73
2022/04/12 11:12:50;;;;;;;10.60;6.35;;;15.50;45.30;;;;;;2266463;59;21081;-74
2022/04/12 11:15:26;;;;;;;15.02;6.35;;;15.60;44.50;;;;;;2266463;59;21077;-73
2022/04/12 11:21:00;;;;;;;8.40;5.20;;;15.80;44.70;;;;;;2356087;57;22046;-74
2022/04/12 11:23:45;;;;;;;14.48;5.80;;;15.90;44.10;;;;;;2594637;52;21061;-72
2022/04/12 11:29:13;;;;;;;12.63;6.97;;;16.00;44.10;;;;;;2355935;57;22571;-74
2022/04/12 11:31:41;;;;;;;12.05;6.93;;;16.10;43.50;;;;;;2347754;57;21113;-73
2022/04/12 11:34:09;;;;;;;11.30;6.55;;;16.30;44.10;;;;;;2347340;57;21053;-72
2022/04/12 11:36:38;;;;;;;16.33;8.13;;;16.30;42.40;;;;;;2365329;56;21604;-72
2022/04/12 11:39:06;;;;;;;10.68;6.05;;;16.40;41.90;;;;;;2628749;52;21566;-74
2022/04/12 11:44:10;;;;;;;10.48;6.47;;;16.40;41.10;;;;;;2355615;57;22134;-73
2022/04/12 11:46:37;;;;;;;11.27;6.90;;;16.40;41.00;;;;;;2365369;56;21063;-73
2022/04/12 11:49:06;;;;;;;10.80;6.45;;;16.50;41.00;;;;;;2374987;56;21173;-72
2022/04/12 11:51:39;;;;;;;11.65;6.53;;;16.50;42.30;;;;;;2375530;56;21047;-72
2022/04/12 11:54:24;;;;;;;10.43;5.60;;;16.70;42.50;;;;;;2375385;56;21066;-72
2022/04/12 11:57:03;;;;;;;11.63;6.50;;;16.70;43.00;;;;;;2374676;56;21585;-74
2022/04/12 11:59:32;;;;;;;11.80;7.05;;;16.80;41.90;;;;;;2374676;56;21039;-74
2022/04/12 12:02:02;;;;;;;12.37;6.97;;;16.80;41.80;;;;;;2375441;56;21038;-72
2022/04/12 12:04:31;;;;;;;10.85;6.37;;;16.80;40.10;;;;;;2375424;56;21601;-73
2022/04/12 12:07:01;;;;;;;10.93;6.00;;;16.90;40.30;;;;;;2374843;56;21103;-72
2022/04/12 12:09:29;;;;;;;12.65;6.43;;;16.90;39.30;;;;;;2375508;56;21050;-73
2022/04/12 12:12:01;;;;;;;12.25;6.20;;;16.90;40.30;;;;;;2375483;56;21117;-72
2022/04/12 12:14:29;;;;;;;14.52;7.15;;;17.00;40.30;;;;;;2374574;56;21533;-72
2022/04/12 12:17:05;;;;;;;14.75;6.37;;;17.00;40.40;;;;;;2374735;56;21058;-73
2022/04/12 12:19:37;;;;;;;10.35;6.32;;;17.00;39.50;;;;;;2627090;52;21047;-74
2022/04/12 12:22:06;;;;;;;9.25;5.28;;;17.10;39.80;;;;;;2375432;56;21051;-74
2022/04/12 12:24:37;;;;;;;13.43;6.93;;;17.20;39.50;;;;;;2375318;56;21229;-76
2022/04/12 12:27:06;;;;;;;11.07;6.20;;;17.20;39.20;;;;;;2375101;56;21517;-74
2022/04/12 12:29:38;;;;;;;12.07;6.57;;;17.20;38.50;;;;;;2374886;56;21114;-77
2022/04/12 12:32:07;;;;;;;11.68;4.47;;;17.20;38.90;;;;;;2628860;52;21351;-73
2022/04/12 12:34:35;;;;;;;13.07;6.47;;;17.20;38.10;;;;;;2626686;52;21522;-73
2022/04/12 12:37:08;;;;;;;11.18;5.75;;;17.30;40.10;;;;;;2374847;56;21035;-73
2022/04/12 12:39:39;;;;;;;10.50;5.82;;;17.30;38.60;;;;;;2375503;56;21028;-73
2022/04/12 12:42:08;;;;;;;11.35;6.12;;;17.40;39.40;;;;;;2375189;56;21126;-73
2022/04/12 12:44:36;;;;;;;11.43;5.25;;;17.50;38.40;;;;;;2374871;56;21019;-73
2022/04/12 12:47:05;;;;;;;8.85;5.53;;;17.50;38.30;;;;;;2374574;56;21090;-74
2022/04/12 12:49:37;;;;;;;10.93;5.82;;;17.50;38.50;;;;;;2375017;56;21015;-73
2022/04/12 12:52:06;;;;;;;11.10;5.50;;;17.60;39.10;;;;;;2374533;56;21050;-73
2022/04/12 12:54:34;;;;;;;10.00;5.40;;;17.60;40.00;;;;;;2374657;56;21322;-73
2022/04/12 12:57:02;;;;;;;10.30;5.30;;;17.70;39.60;;;;;;2373646;56;21050;-74
2022/04/12 12:59:31;;;;;;;11.10;6.37;;;17.80;40.00;;;;;;2374262;56;21090;-73
2022/04/12 13:02:23;;;;;;;12.40;5.68;;;17.90;38.70;;;;;;2374444;56;21027;-73
2022/04/12 13:04:54;;;;;;;8.65;5.43;;;18.00;39.20;;;;;;2627416;52;21043;-74
2022/04/12 13:07:29;;;;;;;9.10;6.22;;;18.10;39.40;;;;;;2373836;56;21047;-74
2022/04/12 13:10:04;;;;;;;9.13;5.07;;;18.20;39.10;;;;;;2373964;56;21031;-74
2022/04/12 13:12:32;;;;;;;14.85;5.70;;;18.20;37.50;;;;;;2374516;56;21577;-75
2022/04/12 13:14:59;;;;;;;10.45;5.32;;;18.20;36.70;;;;;;2374203;56;21030;-74
2022/04/12 13:17:27;;;;;;;11.90;6.40;;;18.20;36.70;;;;;;2373656;56;21593;-74
2022/04/12 13:19:55;;;;;;;10.63;5.75;;;18.20;36.20;;;;;;2374010;56;21298;-73